Time;durP1;ratioP1;P1;durP2;ratioP2;P2;SDS_P1;SDS_P2;PMS_P1;PMS_P2;Temp;Humidity;BMP_temperature;BMP_pressure;BME280_temperature;BME280_humidity;BME280_pressure;Samples;Min_cycle;Max_cycle;Signal;HPM_P1;HPM_P2
2021/09/13 00:00:48;;;;;;;8.15;3.30;;;17.30;99.90;;;;;;5095388;28;20040;-73
2021/09/13 00:03:14;;;;;;;4.82;2.97;;;17.30;99.90;;;;;;5095059;28;20040;-72
2021/09/13 00:05:39;;;;;;;6.65;3.65;;;17.30;99.90;;;;;;5095306;28;20050;-72
2021/09/13 00:08:05;;;;;;;8.77;3.58;;;17.20;99.90;;;;;;5094101;28;20028;-73
2021/09/13 00:10:32;;;;;;;5.03;3.05;;;17.10;99.90;;;;;;5094075;28;20032;-73
2021/09/13 00:12:57;;;;;;;7.22;3.33;;;17.10;99.90;;;;;;5095194;28;20032;-72
2021/09/13 00:15:23;;;;;;;5.32;3.30;;;16.80;99.90;;;;;;5094789;28;20055;-73
2021/09/13 00:17:49;;;;;;;4.90;3.05;;;16.90;99.90;;;;;;5080578;28;20116;-73
2021/09/13 00:20:15;;;;;;;4.43;2.85;;;16.80;99.90;;;;;;5090348;28;20513;-72
2021/09/13 00:22:40;;;;;;;9.38;2.75;;;16.70;99.90;;;;;;5090122;28;20032;-73
2021/09/13 00:25:07;;;;;;;5.85;3.40;;;16.60;99.90;;;;;;5074530;28;20086;-73
2021/09/13 00:27:33;;;;;;;6.38;3.30;;;16.50;99.90;;;;;;5074337;28;20035;-73
2021/09/13 00:29:59;;;;;;;4.10;3.10;;;16.50;99.90;;;;;;5090150;28;20036;-72
2021/09/13 00:32:24;;;;;;;5.65;3.45;;;16.20;99.90;;;;;;5090124;28;20078;-73
2021/09/13 00:34:50;;;;;;;5.95;3.53;;;16.10;99.90;;;;;;5072897;28;20036;-73
2021/09/13 00:37:16;;;;;;;5.18;3.47;;;16.10;99.90;;;;;;5073334;28;20029;-73
2021/09/13 00:39:42;;;;;;;5.75;3.97;;;16.10;99.90;;;;;;5074294;28;20037;-73
2021/09/13 00:42:08;;;;;;;6.85;4.53;;;16.10;99.90;;;;;;5074119;28;20060;-72
2021/09/13 00:44:33;;;;;;;6.05;4.07;;;16.10;99.90;;;;;;5074083;28;20048;-72
2021/09/13 00:47:00;;;;;;;8.05;4.10;;;16.30;99.90;;;;;;5072768;28;20040;-72
2021/09/13 00:49:27;;;;;;;7.88;4.45;;;16.10;99.90;;;;;;5074323;28;20031;-72
2021/09/13 00:51:53;;;;;;;8.48;4.57;;;16.30;99.90;;;;;;5073698;28;20044;-72
2021/09/13 00:54:18;;;;;;;6.47;4.32;;;16.20;99.90;;;;;;5073774;28;20041;-72
2021/09/13 00:56:44;;;;;;;5.20;3.58;;;15.90;99.90;;;;;;5073725;28;20031;-72
2021/09/13 00:59:12;;;;;;;4.60;3.03;;;15.80;99.90;;;;;;5072974;28;20485;-73
2021/09/13 01:01:38;;;;;;;5.60;3.30;;;15.80;99.90;;;;;;5072592;28;20032;-73
2021/09/13 01:04:04;;;;;;;6.55;3.28;;;16.10;99.90;;;;;;5072891;28;20469;-72
2021/09/13 01:06:30;;;;;;;8.18;3.42;;;16.30;99.90;;;;;;5092831;28;20031;-72
2021/09/13 01:08:57;;;;;;;7.10;3.42;;;16.30;99.90;;;;;;5092468;28;20106;-72
2021/09/13 01:11:23;;;;;;;5.45;3.65;;;16.20;99.90;;;;;;5092737;28;20550;-72
2021/09/13 01:13:49;;;;;;;4.95;2.83;;;16.10;99.90;;;;;;5092411;28;20063;-73
2021/09/13 01:16:15;;;;;;;7.90;3.40;;;16.30;99.90;;;;;;5092414;28;20071;-72
2021/09/13 01:18:41;;;;;;;4.63;3.17;;;15.90;99.90;;;;;;5093998;28;20078;-73
2021/09/13 01:21:07;;;;;;;6.82;3.47;;;15.80;99.90;;;;;;5092543;28;20522;-73
2021/09/13 01:23:36;;;;;;;7.28;3.55;;;15.80;99.90;;;;;;5092717;28;20035;-73
2021/09/13 01:26:03;;;;;;;9.32;3.38;;;15.50;99.90;;;;;;5093838;28;20537;-72
2021/09/13 01:28:29;;;;;;;4.55;2.97;;;15.60;99.90;;;;;;5093432;28;20093;-73
2021/09/13 01:30:56;;;;;;;6.65;3.28;;;15.90;99.90;;;;;;5093680;28;20397;-73
2021/09/13 01:33:23;;;;;;;5.50;3.28;;;15.90;99.90;;;;;;5092822;28;20081;-73
2021/09/13 01:35:49;;;;;;;5.38;2.90;;;16.10;99.90;;;;;;5074281;28;20035;-72
2021/09/13 01:38:23;;;;;;;4.15;2.65;;;16.10;99.90;;;;;;5073110;28;20043;-73
2021/09/13 01:40:51;;;;;;;6.60;3.28;;;16.10;99.90;;;;;;5071571;28;20059;-72
2021/09/13 01:43:17;;;;;;;9.40;3.25;;;16.20;99.90;;;;;;5073066;28;20120;-72
2021/09/13 01:45:43;;;;;;;6.93;3.10;;;16.30;99.90;;;;;;5072992;28;20028;-73
2021/09/13 01:48:09;;;;;;;3.90;2.85;;;16.20;99.90;;;;;;5072516;28;20040;-72
2021/09/13 01:50:35;;;;;;;4.78;3.17;;;16.20;99.90;;;;;;5072852;28;20041;-73
2021/09/13 01:53:01;;;;;;;6.53;3.03;;;16.10;99.90;;;;;;5086847;28;20161;-72
2021/09/13 01:55:26;;;;;;;5.68;3.00;;;16.10;99.90;;;;;;5093152;28;20044;-73
2021/09/13 01:57:52;;;;;;;4.18;2.80;;;16.10;99.90;;;;;;5092785;28;20024;-73
2021/09/13 02:00:18;;;;;;;5.15;3.15;;;16.00;99.90;;;;;;5092048;28;20032;-72
2021/09/13 02:02:44;;;;;;;6.32;2.95;;;16.00;99.90;;;;;;5093076;28;20032;-72
2021/09/13 02:05:10;;;;;;;5.25;3.10;;;16.00;99.90;;;;;;5091613;28;20124;-72
2021/09/13 02:07:37;;;;;;;6.72;3.28;;;16.00;99.90;;;;;;5092720;28;20037;-72
2021/09/13 02:10:06;;;;;;;5.30;2.97;;;15.90;99.90;;;;;;5092469;28;20035;-72
2021/09/13 02:12:32;;;;;;;3.72;2.72;;;15.90;99.90;;;;;;5093142;28;20024;-72
2021/09/13 02:14:58;;;;;;;5.40;3.70;;;16.00;99.90;;;;;;5090979;28;20024;-73
2021/09/13 02:17:23;;;;;;;6.65;3.67;;;15.90;99.90;;;;;;5093144;28;20140;-73
2021/09/13 02:19:49;;;;;;;5.97;2.95;;;15.90;99.90;;;;;;5092817;28;20560;-73
2021/09/13 02:22:16;;;;;;;6.45;3.67;;;15.80;99.90;;;;;;5084185;28;20024;-73
2021/09/13 02:24:42;;;;;;;5.20;3.28;;;15.80;99.90;;;;;;5072187;28;20420;-73
2021/09/13 02:27:08;;;;;;;8.75;3.50;;;15.80;99.90;;;;;;5071562;28;20032;-73
2021/09/13 02:29:35;;;;;;;6.00;3.42;;;15.70;99.90;;;;;;5071406;28;20067;-73
2021/09/13 02:32:02;;;;;;;7.10;3.33;;;15.70;99.90;;;;;;5072325;28;20485;-73
2021/09/13 02:34:28;;;;;;;8.23;3.08;;;15.80;99.90;;;;;;5054519;28;20033;-73
2021/09/13 02:36:54;;;;;;;6.53;3.42;;;15.70;99.90;;;;;;5072030;28;20086;-73
2021/09/13 02:39:20;;;;;;;5.68;3.42;;;15.70;99.90;;;;;;5072063;28;20128;-73
2021/09/13 02:41:45;;;;;;;5.80;2.92;;;15.50;99.90;;;;;;5072373;28;20142;-73
2021/09/13 02:44:11;;;;;;;6.70;3.70;;;15.10;99.90;;;;;;5071239;28;20382;-73
2021/09/13 02:46:37;;;;;;;4.72;3.10;;;15.30;99.90;;;;;;5072366;28;20466;-73
2021/09/13 02:49:02;;;;;;;6.10;3.50;;;15.40;99.90;;;;;;5071898;28;20512;-73
2021/09/13 02:51:28;;;;;;;5.60;3.15;;;15.40;99.90;;;;;;5071975;28;20097;-73
2021/09/13 02:53:54;;;;;;;5.38;3.10;;;15.50;99.90;;;;;;5072029;28;20040;-73
2021/09/13 02:56:20;;;;;;;7.07;4.13;;;15.50;99.90;;;;;;5070786;28;20029;-73
2021/09/13 02:58:46;;;;;;;8.88;4.30;;;15.50;99.90;;;;;;5072079;28;20530;-73
2021/09/13 03:01:12;;;;;;;7.60;3.20;;;15.60;99.90;;;;;;5070706;28;20096;-73
2021/09/13 03:03:39;;;;;;;6.15;3.58;;;15.70;99.90;;;;;;5071847;28;20079;-73
2021/09/13 03:06:05;;;;;;;6.47;4.00;;;15.80;99.90;;;;;;5070519;28;20176;-73
2021/09/13 03:08:30;;;;;;;7.93;3.42;;;15.90;99.90;;;;;;5070746;28;20072;-73
2021/09/13 03:10:56;;;;;;;5.80;3.72;;;15.70;99.90;;;;;;5071736;28;20034;-73
2021/09/13 03:13:22;;;;;;;5.03;3.30;;;15.90;99.90;;;;;;5072059;28;20044;-73
2021/09/13 03:15:48;;;;;;;6.05;3.40;;;15.90;99.90;;;;;;5071558;28;20093;-73
2021/09/13 03:18:13;;;;;;;6.20;3.60;;;15.80;99.90;;;;;;5071849;28;20133;-73
2021/09/13 03:20:39;;;;;;;5.35;3.45;;;15.80;99.90;;;;;;5070742;28;20052;-73
2021/09/13 03:23:05;;;;;;;6.00;3.55;;;15.70;99.90;;;;;;5072068;28;20032;-73
2021/09/13 03:25:31;;;;;;;7.47;3.53;;;15.60;99.90;;;;;;5072300;28;20025;-73
2021/09/13 03:27:58;;;;;;;4.57;3.55;;;15.40;99.90;;;;;;5054676;28;20035;-73
2021/09/13 03:30:24;;;;;;;4.72;3.38;;;15.40;99.90;;;;;;5072666;28;20036;-73
2021/09/13 03:32:50;;;;;;;8.00;4.22;;;15.30;99.90;;;;;;5072614;28;20036;-73
2021/09/13 03:35:16;;;;;;;8.75;4.07;;;15.20;99.90;;;;;;5072286;28;20142;-73
2021/09/13 03:37:42;;;;;;;9.95;4.38;;;15.20;99.90;;;;;;5073111;28;20036;-73
2021/09/13 03:40:09;;;;;;;7.25;4.30;;;15.30;99.90;;;;;;5072701;28;20090;-72
2021/09/13 03:42:35;;;;;;;9.07;4.80;;;15.20;99.90;;;;;;5054517;28;20111;-72
2021/09/13 03:45:00;;;;;;;13.68;4.30;;;15.10;99.90;;;;;;5070866;28;20116;-72
2021/09/13 03:47:26;;;;;;;8.00;4.50;;;15.10;99.90;;;;;;5071006;28;20037;-72
2021/09/13 03:49:52;;;;;;;5.95;4.18;;;15.00;99.90;;;;;;5072393;28;20029;-70
2021/09/13 03:52:17;;;;;;;7.47;4.78;;;15.00;99.90;;;;;;5078374;28;20028;-69
2021/09/13 03:54:43;;;;;;;11.95;4.68;;;15.00;99.90;;;;;;5091478;28;20431;-70
2021/09/13 03:57:09;;;;;;;8.48;5.38;;;14.90;99.90;;;;;;5093503;28;20075;-70
2021/09/13 03:59:35;;;;;;;8.48;4.82;;;14.70;99.90;;;;;;5094169;28;20024;-69
2021/09/13 04:02:02;;;;;;;7.30;4.63;;;14.90;99.90;;;;;;5093955;28;20443;-70
2021/09/13 04:04:29;;;;;;;9.32;4.25;;;14.80;99.90;;;;;;5094090;28;20442;-70
2021/09/13 04:07:14;;;;;;;10.80;4.68;;;14.90;99.90;;;;;;5094576;28;20384;-70
2021/09/13 04:09:47;;;;;;;7.53;4.70;;;14.80;99.90;;;;;;5095161;28;20119;-70
2021/09/13 04:12:13;;;;;;;7.30;5.30;;;14.70;99.90;;;;;;5095427;28;20030;-71
2021/09/13 04:14:39;;;;;;;10.30;4.57;;;14.60;99.90;;;;;;5095077;28;20119;-71
2021/09/13 04:17:05;;;;;;;8.10;4.38;;;14.60;99.90;;;;;;5094537;28;20036;-69
2021/09/13 04:19:31;;;;;;;8.27;5.10;;;14.60;99.90;;;;;;5094975;28;20032;-69
2021/09/13 04:21:57;;;;;;;8.00;5.15;;;14.60;99.90;;;;;;5076796;28;20086;-68
2021/09/13 04:24:23;;;;;;;8.10;4.50;;;14.40;99.90;;;;;;5074878;28;20123;-68
2021/09/13 04:26:49;;;;;;;7.95;5.50;;;14.30;99.90;;;;;;5074608;28;20251;-68
2021/09/13 04:29:15;;;;;;;13.50;6.57;;;13.90;99.90;;;;;;5074608;28;20086;-68
2021/09/13 04:31:41;;;;;;;8.48;5.78;;;14.10;99.90;;;;;;5090428;28;20028;-68
2021/09/13 04:34:07;;;;;;;9.23;5.05;;;14.30;99.90;;;;;;5074169;28;20028;-68
2021/09/13 04:36:32;;;;;;;8.38;5.00;;;14.40;99.90;;;;;;5089835;28;20427;-67
2021/09/13 04:38:58;;;;;;;16.20;10.52;;;14.60;99.90;;;;;;5074253;28;20078;-69
2021/09/13 04:41:24;;;;;;;18.65;11.23;;;14.50;99.90;;;;;;5073139;28;20100;-71
2021/09/13 04:43:50;;;;;;;8.43;5.22;;;14.40;99.90;;;;;;5089904;28;20166;-73
2021/09/13 04:46:16;;;;;;;7.30;4.97;;;14.30;99.90;;;;;;5074295;28;20067;-59
2021/09/13 04:48:42;;;;;;;7.55;5.75;;;14.30;99.90;;;;;;5074419;28;20040;-60
2021/09/13 04:51:07;;;;;;;11.77;5.60;;;14.20;99.90;;;;;;5083581;28;20115;-60
2021/09/13 04:53:33;;;;;;;9.45;5.47;;;14.00;99.90;;;;;;5093212;28;20020;-60
2021/09/13 04:55:59;;;;;;;8.60;5.35;;;13.80;99.90;;;;;;5094106;28;20084;-60
2021/09/13 04:58:24;;;;;;;11.65;5.80;;;13.80;99.90;;;;;;5093353;28;20016;-60
2021/09/13 05:00:50;;;;;;;11.43;7.18;;;13.60;99.90;;;;;;5094304;28;20384;-60
2021/09/13 05:03:16;;;;;;;9.85;5.93;;;13.60;99.90;;;;;;5093205;28;20365;-59
2021/09/13 05:05:42;;;;;;;9.40;6.07;;;13.20;99.90;;;;;;5093805;28;20028;-58
2021/09/13 05:08:07;;;;;;;9.98;6.18;;;13.10;99.90;;;;;;5092823;28;20103;-60
2021/09/13 05:10:33;;;;;;;12.93;7.05;;;13.10;99.90;;;;;;5094273;28;20056;-60
2021/09/13 05:13:00;;;;;;;12.63;6.22;;;13.40;99.90;;;;;;5090434;28;20709;-60
2021/09/13 05:15:27;;;;;;;10.13;6.88;;;13.50;99.90;;;;;;5083621;28;20048;-59
2021/09/13 05:17:53;;;;;;;12.27;6.57;;;13.40;99.90;;;;;;5091954;28;20057;-59
2021/09/13 05:20:18;;;;;;;11.57;6.03;;;13.50;99.90;;;;;;5090492;28;20040;-59
2021/09/13 05:22:44;;;;;;;9.60;5.72;;;13.40;99.90;;;;;;5073464;28;20024;-59
2021/09/13 05:25:10;;;;;;;8.38;6.28;;;13.40;99.90;;;;;;5074592;28;20505;-71
2021/09/13 05:27:36;;;;;;;9.70;6.20;;;13.50;99.90;;;;;;5091976;28;20028;-71
2021/09/13 05:30:04;;;;;;;10.98;6.22;;;13.40;99.90;;;;;;5092158;28;20039;-71
2021/09/13 05:32:30;;;;;;;12.23;6.88;;;13.40;99.90;;;;;;5092132;28;20385;-71
2021/09/13 05:34:56;;;;;;;9.98;6.65;;;13.60;99.90;;;;;;5093109;28;20040;-71
2021/09/13 05:37:22;;;;;;;10.27;5.90;;;13.70;99.90;;;;;;5091912;28;20530;-71
2021/09/13 05:39:48;;;;;;;9.07;6.30;;;13.80;99.90;;;;;;5092103;28;20392;-71
2021/09/13 05:42:14;;;;;;;10.27;6.32;;;14.00;99.90;;;;;;5093280;28;20024;-71
2021/09/13 05:44:41;;;;;;;10.07;6.15;;;14.10;99.90;;;;;;5093079;28;20032;-71
2021/09/13 05:47:07;;;;;;;10.23;6.50;;;14.20;99.90;;;;;;5091734;28;20454;-71
2021/09/13 05:49:35;;;;;;;11.88;5.47;;;14.40;99.90;;;;;;5093124;28;20489;-71
2021/09/13 05:52:01;;;;;;;11.50;6.03;;;14.50;99.90;;;;;;5091826;28;20114;-71
2021/09/13 05:54:26;;;;;;;16.27;6.28;;;14.60;99.90;;;;;;5093088;28;20032;-71
2021/09/13 05:56:56;;;;;;;10.98;5.30;;;14.80;99.90;;;;;;5092968;28;20042;-71
2021/09/13 05:59:24;;;;;;;8.50;5.20;;;14.80;99.90;;;;;;5091854;28;20626;-70
2021/09/13 06:01:51;;;;;;;9.02;5.72;;;14.70;99.90;;;;;;5083669;28;20024;-70
2021/09/13 06:04:19;;;;;;;11.75;5.60;;;14.70;99.90;;;;;;5072513;28;20115;-70
2021/09/13 06:06:45;;;;;;;9.90;5.35;;;14.90;99.90;;;;;;5072448;28;20032;-71
2021/09/13 06:09:11;;;;;;;7.07;5.05;;;15.00;99.90;;;;;;5072833;28;20028;-71
2021/09/13 06:11:38;;;;;;;9.77;5.35;;;15.10;99.90;;;;;;5071661;28;20036;-71
2021/09/13 06:14:04;;;;;;;9.52;5.72;;;15.10;99.90;;;;;;5071466;28;20048;-71
2021/09/13 06:16:30;;;;;;;9.40;5.65;;;15.10;99.90;;;;;;5072187;28;20371;-71
2021/09/13 06:18:56;;;;;;;9.48;5.32;;;15.10;99.90;;;;;;5072354;28;20035;-71
2021/09/13 06:21:23;;;;;;;6.75;4.93;;;15.20;99.90;;;;;;5072592;28;20087;-71
2021/09/13 06:23:49;;;;;;;7.47;5.03;;;15.20;99.90;;;;;;5072739;28;20058;-71
2021/09/13 06:26:16;;;;;;;8.52;5.07;;;15.40;99.90;;;;;;5072535;28;20071;-71
2021/09/13 06:28:42;;;;;;;9.93;5.20;;;15.50;99.90;;;;;;5072427;28;20032;-71
2021/09/13 06:31:08;;;;;;;9.40;4.93;;;15.70;99.90;;;;;;5070992;28;20480;-71
2021/09/13 06:33:34;;;;;;;9.27;4.50;;;15.90;99.90;;;;;;5071014;28;20086;-71
2021/09/13 06:36:02;;;;;;;8.38;4.85;;;16.10;99.90;;;;;;5054271;28;20033;-71
2021/09/13 06:38:30;;;;;;;15.73;4.57;;;16.10;99.90;;;;;;5070864;28;20389;-71
2021/09/13 06:40:56;;;;;;;8.82;5.18;;;16.20;99.90;;;;;;5071270;28;20129;-71
2021/09/13 06:43:22;;;;;;;12.80;4.95;;;16.00;99.90;;;;;;5072265;28;20031;-71
2021/09/13 06:45:56;;;;;;;7.32;3.97;;;15.80;99.90;;;;;;5070956;28;20028;-71
2021/09/13 06:48:22;;;;;;;13.73;5.10;;;15.90;99.90;;;;;;5070955;28;20029;-71
2021/09/13 06:50:50;;;;;;;7.97;4.75;;;16.10;99.90;;;;;;5072184;28;20539;-71
2021/09/13 06:53:16;;;;;;;11.27;4.40;;;16.00;99.90;;;;;;5071793;28;20094;-71
2021/09/13 06:55:42;;;;;;;10.65;4.63;;;16.10;99.90;;;;;;5072218;28;20029;-71
2021/09/13 06:58:08;;;;;;;9.77;5.72;;;16.00;99.90;;;;;;5072201;28;20063;-70
2021/09/13 07:00:38;;;;;;;7.72;4.82;;;15.80;99.90;;;;;;5054989;28;20032;-70
2021/09/13 07:03:04;;;;;;;6.43;4.18;;;16.00;99.90;;;;;;5071847;28;20025;-71
2021/09/13 07:05:30;;;;;;;5.22;4.00;;;16.00;99.90;;;;;;5072133;28;20036;-70
2021/09/13 07:07:56;;;;;;;8.57;4.10;;;16.00;99.90;;;;;;5070652;28;20075;-70
2021/09/13 07:10:22;;;;;;;8.05;4.45;;;16.10;99.90;;;;;;5072155;28;20145;-70
2021/09/13 07:12:49;;;;;;;7.68;4.72;;;16.20;99.90;;;;;;5072182;28;20029;-70
2021/09/13 07:15:18;;;;;;;8.38;5.28;;;16.10;99.90;;;;;;5071516;28;20040;-70
2021/09/13 07:17:44;;;;;;;7.22;4.40;;;16.10;99.90;;;;;;5070935;28;20032;-70
2021/09/13 07:20:11;;;;;;;8.43;4.30;;;16.20;99.90;;;;;;5071905;28;20041;-70
2021/09/13 07:22:37;;;;;;;11.32;4.45;;;16.20;99.90;;;;;;5070517;28;20473;-69
2021/09/13 07:25:04;;;;;;;9.65;4.95;;;16.20;99.90;;;;;;5071910;28;20032;-70
2021/09/13 07:27:29;;;;;;;5.80;3.50;;;16.30;99.90;;;;;;5072068;28;20595;-70
2021/09/13 07:29:59;;;;;;;9.57;4.03;;;16.40;99.90;;;;;;5077033;28;20111;-69
2021/09/13 07:32:26;;;;;;;10.07;4.35;;;16.50;99.90;;;;;;5092951;28;20028;-70
2021/09/13 07:34:51;;;;;;;9.07;3.70;;;16.60;99.90;;;;;;5095698;28;20118;-70
2021/09/13 07:37:17;;;;;;;8.88;3.70;;;16.70;99.90;;;;;;5095716;28;20152;-70
2021/09/13 07:39:43;;;;;;;9.02;3.53;;;16.70;99.90;;;;;;5095675;28;20460;-70
2021/09/13 07:42:09;;;;;;;6.60;3.95;;;16.90;99.90;;;;;;5095428;28;20036;-70
2021/09/13 07:44:34;;;;;;;4.55;3.00;;;17.10;99.90;;;;;;5094367;28;20075;-77
2021/09/13 07:47:00;;;;;;;6.40;3.35;;;17.30;99.90;;;;;;5095538;28;20183;-70
2021/09/13 07:49:26;;;;;;;6.95;3.33;;;17.40;99.90;;;;;;5095584;28;20035;-70
2021/09/13 07:51:52;;;;;;;11.13;3.17;;;17.40;99.90;;;;;;5094216;28;20066;-71
2021/09/13 07:54:18;;;;;;;8.13;4.13;;;17.50;99.90;;;;;;5092428;28;20385;-70
2021/09/13 07:56:44;;;;;;;8.15;3.75;;;17.70;99.90;;;;;;5075218;28;20043;-70
2021/09/13 07:59:10;;;;;;;7.57;3.08;;;17.70;99.90;;;;;;5075246;28;20062;-70
2021/09/13 08:01:36;;;;;;;9.57;3.38;;;17.70;99.90;;;;;;5075055;28;20511;-70
2021/09/13 08:04:02;;;;;;;5.00;3.13;;;17.80;99.90;;;;;;5056987;28;20082;-70
2021/09/13 08:06:28;;;;;;;5.85;2.92;;;18.00;99.90;;;;;;5073830;28;20111;-70
2021/09/13 08:08:54;;;;;;;7.57;3.67;;;18.00;99.90;;;;;;5075196;28;20107;-70
2021/09/13 08:11:20;;;;;;;5.43;2.72;;;18.10;99.90;;;;;;5057395;28;20028;-70
2021/09/13 08:13:46;;;;;;;7.28;3.05;;;18.30;99.90;;;;;;5074743;28;20035;-70
2021/09/13 08:16:13;;;;;;;4.65;3.17;;;18.40;99.90;;;;;;5074606;28;20072;-70
2021/09/13 08:18:39;;;;;;;5.35;2.70;;;18.30;99.90;;;;;;5074904;28;20064;-70
2021/09/13 08:21:08;;;;;;;5.05;3.15;;;18.30;99.90;;;;;;5074407;28;20405;-70
2021/09/13 08:23:35;;;;;;;4.13;2.58;;;18.50;99.90;;;;;;5073818;28;20044;-70
2021/09/13 08:26:06;;;;;;;7.80;3.30;;;18.70;99.90;;;;;;5073440;28;20107;-70
2021/09/13 08:28:33;;;;;;;8.73;2.88;;;18.60;99.90;;;;;;5073510;28;20481;-69
2021/09/13 08:30:59;;;;;;;7.57;2.83;;;18.70;99.90;;;;;;5074855;28;20059;-70
2021/09/13 08:33:25;;;;;;;4.25;2.55;;;18.90;99.90;;;;;;5073130;28;20734;-69
2021/09/13 08:35:53;;;;;;;4.82;2.55;;;19.00;99.90;;;;;;5074473;28;20044;-69
2021/09/13 08:38:21;;;;;;;5.95;2.65;;;19.10;99.90;;;;;;5074337;28;20036;-70
2021/09/13 08:40:47;;;;;;;7.97;2.97;;;19.40;99.90;;;;;;5073280;28;20127;-70
2021/09/13 08:43:14;;;;;;;5.28;2.35;;;19.40;99.90;;;;;;5072022;28;20029;-70
2021/09/13 08:53:19;;;;;;;7.18;2.40;;;20.10;99.90;;;;;;5072970;28;20032;-69
2021/09/13 08:55:45;;;;;;;;;;;20.20;99.90;;;;;;5073206;28;20032;-70
2021/09/13 08:58:22;;;;;;;6.18;2.10;;;20.40;99.90;;;;;;5072667;28;19939;-70
2021/09/13 09:00:49;;;;;;;6.90;2.40;;;20.50;99.90;;;;;;5072739;28;20033;-69
2021/09/13 09:03:17;;;;;;;4.40;2.08;;;20.80;99.90;;;;;;5073738;28;20090;-69
2021/09/13 09:05:46;;;;;;;6.85;2.10;;;20.90;99.90;;;;;;5073999;28;20524;-69
2021/09/13 09:08:33;;;;;;;5.78;2.03;;;21.10;99.90;;;;;;5072796;28;20033;-70
2021/09/13 09:11:03;;;;;;;5.70;1.90;;;21.30;99.90;;;;;;5073876;28;20044;-70
2021/09/13 09:13:41;;;;;;;8.57;1.75;;;21.60;99.90;;;;;;5073721;28;20128;-70
2021/09/13 09:16:09;;;;;;;3.63;1.65;;;21.80;99.90;;;;;;5073476;28;20051;-70
2021/09/13 09:18:49;;;;;;;3.20;1.77;;;21.80;99.90;;;;;;5072688;28;20060;-70
2021/09/13 09:21:33;;;;;;;4.15;1.67;;;22.00;99.90;;;;;;5089123;28;20044;-70
2021/09/13 09:24:06;;;;;;;3.08;1.55;;;22.10;99.90;;;;;;5073877;28;20098;-70
2021/09/13 09:26:32;;;;;;;9.45;1.90;;;22.20;99.90;;;;;;5056271;28;20117;-70
2021/09/13 09:29:00;;;;;;;8.07;2.15;;;22.10;99.90;;;;;;5073567;28;20063;-71
2021/09/13 09:31:40;;;;;;;7.78;2.70;;;22.30;99.90;;;;;;5072143;28;20389;-71
2021/09/13 09:34:20;;;;;;;3.80;1.77;;;22.40;99.90;;;;;;5071812;28;20509;-71
2021/09/13 09:36:58;;;;;;;4.85;2.05;;;22.40;99.90;;;;;;5073521;28;20051;-70
2021/09/13 09:39:38;;;;;;;5.10;1.70;;;22.50;99.90;;;;;;5073061;28;20040;-70
2021/09/13 09:42:09;;;;;;;6.35;1.70;;;22.60;99.90;;;;;;5055191;28;20075;-70
2021/09/13 09:44:35;;;;;;;2.65;1.88;;;22.80;99.90;;;;;;5073147;28;20037;-69
2021/09/13 09:47:09;;;;;;;4.00;1.77;;;22.90;99.90;;;;;;5073126;28;20032;-70
2021/09/13 09:49:47;;;;;;;3.72;1.90;;;22.90;99.90;;;;;;5071685;28;20051;-70
2021/09/13 09:52:30;;;;;;;3.80;1.48;;;23.00;99.90;;;;;;5075657;28;20029;-70
2021/09/13 09:55:18;;;;;;;2.58;1.35;;;23.40;99.90;;;;;;5092808;28;20040;-70
2021/09/13 09:58:05;;;;;;;2.55;1.35;;;23.20;99.90;;;;;;5093038;28;20388;-70
2021/09/13 10:00:34;;;;;;;4.28;1.33;;;23.40;99.40;;;;;;5093113;28;20396;-70
2021/09/13 10:03:00;;;;;;;2.53;1.38;;;23.80;98.30;;;;;;5092207;28;20032;-70
2021/09/13 10:05:29;;;;;;;2.95;1.33;;;23.90;97.30;;;;;;5092855;28;20039;-70
2021/09/13 10:07:56;;;;;;;6.80;2.25;;;23.90;96.50;;;;;;5074737;28;20058;-70
2021/09/13 10:10:28;;;;;;;3.47;1.50;;;23.90;96.50;;;;;;5091714;28;20027;-70
2021/09/13 10:12:55;;;;;;;3.58;1.20;;;23.80;96.40;;;;;;5091562;28;20486;-70
2021/09/13 10:15:20;;;;;;;2.90;1.30;;;24.00;96.90;;;;;;5092307;28;20119;-69
2021/09/13 10:17:47;;;;;;;3.30;1.50;;;24.20;95.60;;;;;;5092627;28;20190;-70
2021/09/13 10:20:13;;;;;;;4.28;1.50;;;24.40;95.00;;;;;;5091464;28;20032;-69
2021/09/13 10:22:43;;;;;;;2.47;1.52;;;24.60;95.10;;;;;;5091691;28;20637;-69
2021/09/13 10:25:10;;;;;;;2.70;1.20;;;24.70;95.50;;;;;;5090949;28;20085;-71
2021/09/13 10:27:43;;;;;;;2.92;1.48;;;24.60;95.20;;;;;;5092640;28;20278;-71
2021/09/13 10:30:22;;;;;;;4.15;1.33;;;24.80;95.00;;;;;;5090827;28;20071;-69
2021/09/13 10:33:08;;;;;;;4.10;1.20;;;25.10;94.20;;;;;;5074785;28;20050;-70
2021/09/13 10:36:02;;;;;;;2.92;1.20;;;25.00;94.00;;;;;;5082370;28;20052;-71
2021/09/13 10:38:47;;;;;;;2.67;1.30;;;25.30;94.00;;;;;;5082230;28;20469;-73
2021/09/13 10:41:54;;;;;;;2.05;1.23;;;25.50;93.00;;;;;;5083650;28;20041;-71
2021/09/13 10:44:36;;;;;;;2.90;1.20;;;25.70;92.70;;;;;;5081681;28;20048;-73
2021/09/13 10:47:03;;;;;;;2.70;1.13;;;25.40;93.20;;;;;;5071178;28;20026;-72
2021/09/13 10:49:30;;;;;;;2.90;1.27;;;25.50;93.30;;;;;;5087641;28;20032;-72
2021/09/13 10:52:31;;;;;;;3.58;1.77;;;25.60;92.70;;;;;;5081536;28;20021;-73
2021/09/13 10:55:09;;;;;;;2.95;1.10;;;25.90;92.80;;;;;;5086655;28;20036;-72
2021/09/13 10:57:54;;;;;;;3.22;1.40;;;26.20;92.00;;;;;;5079706;28;20071;-71
2021/09/13 11:00:39;;;;;;;3.17;1.35;;;25.50;92.00;;;;;;5078529;28;20040;-72
2021/09/13 11:06:06;;;;;;;2.33;1.20;;;25.60;92.60;;;;;;5092490;28;20036;-73
2021/09/13 11:08:48;;;;;;;5.70;1.73;;;25.50;92.30;;;;;;5096591;28;20032;-73
2021/09/13 11:11:19;;;;;;;3.35;1.25;;;25.90;91.70;;;;;;5095917;28;20069;-73
2021/09/13 11:13:54;;;;;;;2.30;1.23;;;26.00;92.00;;;;;;5095981;28;20106;-72
2021/09/13 11:16:20;;;;;;;3.38;1.10;;;26.50;91.60;;;;;;5094595;28;20060;-73
2021/09/13 11:18:47;;;;;;;4.70;1.27;;;26.50;91.30;;;;;;5095172;28;20024;-73
2021/09/13 11:21:34;;;;;;;2.47;1.25;;;26.20;91.60;;;;;;5095808;28;20504;-72
2021/09/13 11:24:05;;;;;;;3.10;1.33;;;26.10;90.70;;;;;;5096271;28;20067;-72
2021/09/13 11:26:55;;;;;;;4.10;1.98;;;26.40;90.30;;;;;;5094429;28;20062;-72
2021/09/13 11:29:36;;;;;;;4.13;1.85;;;26.40;90.30;;;;;;5095747;28;20036;-72
2021/09/13 11:32:11;;;;;;;4.70;1.10;;;26.00;90.60;;;;;;5095858;28;20047;-72
2021/09/13 11:34:39;;;;;;;2.22;1.10;;;26.30;90.80;;;;;;5094763;28;20533;-72
2021/09/13 11:37:21;;;;;;;2.38;1.13;;;25.90;90.90;;;;;;5095549;28;20370;-72
2021/09/13 11:39:53;;;;;;;3.05;1.13;;;26.50;91.00;;;;;;5095711;28;20429;-72
2021/09/13 11:42:25;;;;;;;2.28;1.05;;;27.00;90.20;;;;;;5094470;28;20028;-73
2021/09/13 11:45:06;;;;;;;2.53;1.08;;;27.40;90.30;;;;;;5095637;28;20032;-72
2021/09/13 11:47:35;;;;;;;4.28;1.33;;;27.70;89.60;;;;;;5078012;28;20055;-72
2021/09/13 11:50:04;;;;;;;2.17;0.98;;;27.80;88.10;;;;;;5095208;28;20107;-72
2021/09/13 11:52:35;;;;;;;2.27;1.30;;;26.70;89.50;;;;;;5091075;28;20027;-73
2021/09/13 11:55:17;;;;;;;3.85;1.17;;;26.80;89.00;;;;;;5095408;28;20031;-72
2021/09/13 11:57:48;;;;;;;4.70;1.30;;;27.30;89.10;;;;;;5094507;28;20131;-72
2021/09/13 12:00:27;;;;;;;3.03;1.17;;;27.60;89.10;;;;;;5094491;28;20032;-73
2021/09/13 12:03:00;;;;;;;2.10;0.95;;;27.90;88.80;;;;;;5093959;28;20035;-72
2021/09/13 12:05:37;;;;;;;4.28;1.13;;;28.20;86.40;;;;;;5095552;28;20032;-73
2021/09/13 12:08:24;;;;;;;3.95;1.23;;;29.10;85.40;;;;;;5094106;28;20039;-73
2021/09/13 12:10:51;;;;;;;2.88;1.50;;;29.80;82.90;;;;;;5079687;28;20067;-73
2021/09/13 12:13:19;;;;;;;2.83;0.93;;;29.70;81.90;;;;;;5077006;28;20492;-73
2021/09/13 12:15:51;;;;;;;2.45;1.15;;;30.20;82.80;;;;;;5094626;28;20067;-74
2021/09/13 12:18:19;;;;;;;2.63;1.20;;;31.10;79.10;;;;;;5094975;28;20089;-73
2021/09/13 12:20:50;;;;;;;3.20;1.20;;;31.00;79.50;;;;;;5093123;28;20511;-73
2021/09/13 12:23:25;;;;;;;3.65;1.30;;;31.30;76.40;;;;;;5094705;28;20028;-74
2021/09/13 12:25:54;;;;;;;2.13;1.00;;;32.10;76.60;;;;;;5094886;28;20028;-73
2021/09/13 12:28:26;;;;;;;2.45;1.20;;;32.90;74.00;;;;;;5094899;28;20028;-72
2021/09/13 12:31:02;;;;;;;4.18;1.40;;;31.90;74.90;;;;;;5093606;28;20032;-73
2021/09/13 12:33:46;;;;;;;2.45;1.10;;;32.50;73.20;;;;;;5094322;28;20024;-74
2021/09/13 12:36:25;;;;;;;2.92;1.08;;;30.70;74.60;;;;;;5094512;28;20077;-74
2021/09/13 12:39:00;;;;;;;2.80;1.58;;;30.00;77.10;;;;;;5094539;28;20078;-73
2021/09/13 12:41:42;;;;;;;4.40;1.48;;;29.60;78.00;;;;;;5093487;28;20506;-73
2021/09/13 12:44:21;;;;;;;4.65;1.48;;;29.50;77.50;;;;;;5093370;28;20469;-74
2021/09/13 12:46:50;;;;;;;1.90;1.10;;;28.50;80.50;;;;;;5093100;28;20024;-73
2021/09/13 12:49:16;;;;;;;2.45;1.15;;;28.80;80.10;;;;;;5093101;28;20036;-73
2021/09/13 12:52:01;;;;;;;3.38;1.45;;;29.30;80.00;;;;;;5094247;28;20028;-73
2021/09/13 12:54:33;;;;;;;3.72;1.42;;;29.20;80.30;;;;;;5094244;28;20035;-73
2021/09/13 12:56:59;;;;;;;4.25;1.35;;;29.90;79.30;;;;;;5094624;28;20082;-72
2021/09/13 12:59:24;;;;;;;3.58;1.33;;;29.10;80.50;;;;;;5093944;28;20031;-71
2021/09/13 13:01:53;;;;;;;2.83;1.30;;;30.50;80.60;;;;;;5082240;28;20028;-74
2021/09/13 13:04:22;;;;;;;2.78;1.27;;;31.20;77.30;;;;;;5076224;28;20040;-73